Terminal Aerodrome Forecast
Issued by NWS Detroit/Pontiac, MI

Home | Current Version | Previous Version | Text Only | Print | Product List | Glossary On
Versions: 1 2 3 4 5 6 7 8 9 10 11 12 13 14
000
FTUS43 KDTX 211129
TAFFNT
TAF
KFNT 211129Z 2112/2212 23012G20KT P6SM SCT035 OVC050
     FM211400 24015G24KT P6SM BKN060
     FM211600 25018G28KT P6SM SCT040 BKN060
      TEMPO 2117/2121 25024G38KT P6SM SHRA OVC040
     FM220000 22014KT P6SM BKN060
     FM220600 24008KT P6SM SCT030 BKN050=

USA.gov is the U.S. government's official web portal to all federal, state and local government web resources and services.